createdAt,value
2023-03-12T00:01:36.437Z,73.25
2023-03-12T00:04:39.312Z,72.42
2023-03-12T00:07:41.413Z,71.30
2023-03-12T00:10:43.427Z,70.38
2023-03-12T00:13:48.916Z,71.95
2023-03-12T00:16:51.215Z,72.10
2023-03-12T00:19:53.864Z,72.29
2023-03-12T00:22:56.238Z,71.80
2023-03-12T00:26:17.829Z,72.94
2023-03-12T00:29:20.430Z,73.07
2023-03-12T00:32:22.578Z,72.26
2023-03-12T00:35:30.344Z,73.18
2023-03-12T00:38:32.865Z,73.09
2023-03-12T00:41:35.044Z,73.30
2023-03-12T00:44:37.268Z,73.62
2023-03-12T00:47:41.820Z,73.34
2023-03-12T00:50:44.216Z,73.11
2023-03-12T00:53:48.438Z,72.99
2023-03-12T00:56:50.784Z,72.78
2023-03-12T00:59:52.914Z,71.45
2023-03-12T01:02:56.927Z,71.33
2023-03-12T01:06:01.936Z,70.81
2023-03-12T01:09:05.972Z,71.77
2023-03-12T01:12:08.422Z,71.27
2023-03-12T01:15:14.084Z,72.41
2023-03-12T01:18:16.612Z,73.09
2023-03-12T01:21:18.749Z,73.50
2023-03-12T01:24:21.006Z,73.66
2023-03-12T01:27:23.290Z,73.13
2023-03-12T01:30:25.734Z,73.00
2023-03-12T01:33:27.922Z,73.33
2023-03-12T01:36:31.056Z,72.62
2023-03-12T01:39:33.149Z,72.50
2023-03-12T01:42:35.195Z,72.71
2023-03-12T01:46:24.524Z,72.62
2023-03-12T01:49:31.791Z,72.19
2023-03-12T01:52:37.853Z,72.22
2023-03-12T01:55:41.845Z,73.25
2023-03-12T01:58:50.826Z,71.90
2023-03-12T02:01:53.193Z,72.25
2023-03-12T02:05:17.775Z,72.14
2023-03-12T02:08:19.958Z,72.70
2023-03-12T02:11:22.039Z,72.88
2023-03-12T02:14:24.354Z,73.19
2023-03-12T02:17:26.835Z,72.34
2023-03-12T02:21:10.098Z,72.48
2023-03-12T02:24:24.827Z,72.64
2023-03-12T02:27:27.011Z,72.75
2023-03-12T02:30:30.772Z,73.07
2023-03-12T02:33:32.930Z,72.41
2023-03-12T02:36:35.395Z,70.89
2023-03-12T02:39:41.524Z,70.21
2023-03-12T02:42:44.957Z,71.19
2023-03-12T02:45:47.158Z,71.82
2023-03-12T02:48:49.852Z,71.28
2023-03-12T02:51:52.522Z,71.96
2023-03-12T02:54:54.642Z,72.46
2023-03-12T02:57:56.876Z,73.36
2023-03-12T03:00:59.102Z,72.75
2023-03-12T03:04:02.895Z,73.18
2023-03-12T03:07:05.244Z,73.14
2023-03-12T03:10:08.123Z,72.71
2023-03-12T03:13:10.260Z,71.71
2023-03-12T03:16:14.027Z,71.64
2023-03-12T03:19:16.492Z,71.97
2023-03-12T03:22:19.800Z,71.45
2023-03-12T03:25:23.385Z,71.35
2023-03-12T03:28:27.672Z,70.05
2023-03-12T03:31:30.722Z,69.82
2023-03-12T03:34:33.725Z,70.81
2023-03-12T03:37:35.964Z,70.58
2023-03-12T03:40:38.172Z,71.55
2023-03-12T03:43:40.358Z,72.48
2023-03-12T03:46:42.533Z,72.35
2023-03-12T03:49:46.530Z,72.82
2023-03-12T03:52:49.931Z,71.62
2023-03-12T03:55:52.018Z,70.81
2023-03-12T03:58:54.443Z,70.94
2023-03-12T04:01:57.385Z,71.19
2023-03-12T04:05:01.126Z,70.72
2023-03-12T04:08:03.717Z,69.71
2023-03-12T04:11:19.071Z,67.94
2023-03-12T04:14:21.253Z,71.02
2023-03-12T04:17:23.564Z,70.03
2023-03-12T04:20:25.671Z,70.06
2023-03-12T04:23:27.975Z,67.86
2023-03-12T04:26:30.945Z,70.95
2023-03-12T04:29:33.475Z,70.73
2023-03-12T04:32:35.798Z,71.61
2023-03-12T04:35:38.230Z,71.43
2023-03-12T04:38:40.462Z,71.59
2023-03-12T04:41:43.147Z,71.61
2023-03-12T04:44:52.613Z,69.87
2023-03-12T04:47:55.098Z,71.01
2023-03-12T04:50:57.385Z,71.17
2023-03-12T04:54:00.905Z,70.39
2023-03-12T04:57:03.209Z,69.55
2023-03-12T05:00:11.189Z,69.33
2023-03-12T05:03:13.535Z,68.58
2023-03-12T05:06:15.593Z,68.16
2023-03-12T05:09:18.135Z,68.15
2023-03-12T05:12:20.320Z,68.05
2023-03-12T05:15:22.698Z,69.70
2023-03-12T05:18:26.562Z,70.88
2023-03-12T05:21:30.564Z,70.04
2023-03-12T05:24:32.906Z,68.77
2023-03-12T05:27:36.776Z,67.10
2023-03-12T05:30:40.415Z,64.35
2023-03-12T05:33:43.668Z,64.15
2023-03-12T05:36:46.103Z,64.24
2023-03-12T05:39:54.252Z,69.00
2023-03-12T05:42:56.801Z,66.68
2023-03-12T05:46:04.106Z,72.30
2023-03-12T05:49:07.721Z,69.53
2023-03-12T05:52:10.528Z,74.50
2023-03-12T05:55:12.697Z,70.59
2023-03-12T05:58:14.762Z,70.07
2023-03-12T06:01:24.120Z,68.57
2023-03-12T06:04:27.299Z,73.20
2023-03-12T06:07:29.497Z,71.48
2023-03-12T06:10:31.879Z,70.39
2023-03-12T06:13:34.292Z,68.43
2023-03-12T06:16:37.264Z,64.57
2023-03-12T06:19:39.619Z,66.23
2023-03-12T06:22:42.736Z,65.38
2023-03-12T06:25:45.456Z,70.66
2023-03-12T06:28:49.139Z,67.09
2023-03-12T06:31:52.458Z,64.41
2023-03-12T06:34:54.546Z,62.64
2023-03-12T06:37:56.654Z,59.69
2023-03-12T06:41:04.118Z,58.88
2023-03-12T06:44:06.647Z,60.06
2023-03-12T06:47:09.927Z,60.87
2023-03-12T06:50:12.120Z,58.83
2023-03-12T06:53:14.181Z,59.01
2023-03-12T06:56:16.199Z,58.39
2023-03-12T06:59:18.620Z,58.30
2023-03-12T07:02:20.815Z,56.62
2023-03-12T07:05:24.116Z,57.40
2023-03-12T07:08:31.042Z,59.91
2023-03-12T07:11:33.086Z,59.93
2023-03-12T07:14:35.085Z,59.68
2023-03-12T07:17:37.199Z,60.14
2023-03-12T07:20:41.542Z,60.84
2023-03-12T07:23:43.569Z,60.93
2023-03-12T07:26:46.190Z,62.54
2023-03-12T07:29:48.589Z,63.21
2023-03-12T07:32:50.785Z,65.67
2023-03-12T07:35:53.062Z,66.79
2023-03-12T07:38:55.667Z,67.68
2023-03-12T07:41:57.784Z,69.97
2023-03-12T07:45:00.309Z,80.49
2023-03-12T07:48:02.357Z,79.28
2023-03-12T07:51:05.190Z,78.33
2023-03-12T07:54:07.232Z,78.78
2023-03-12T07:57:09.401Z,74.12
2023-03-12T08:00:12.400Z,74.11
2023-03-12T08:03:14.847Z,73.94
2023-03-12T08:06:17.063Z,71.85
2023-03-12T08:09:19.128Z,69.16
2023-03-12T08:12:21.120Z,75.28
2023-03-12T08:15:25.517Z,69.28
2023-03-12T08:18:27.919Z,67.96
2023-03-12T08:21:30.109Z,66.23
2023-03-12T08:24:32.152Z,64.74
2023-03-12T08:27:34.233Z,63.17
2023-03-12T08:30:36.456Z,64.02
2023-03-12T08:33:41.286Z,62.30
2023-03-12T08:36:43.259Z,62.28
2023-03-12T08:39:45.349Z,61.15
2023-03-12T08:42:47.449Z,62.07
2023-03-12T08:46:00.809Z,62.27
2023-03-12T08:49:02.901Z,61.89
2023-03-12T08:52:05.445Z,62.82
2023-03-12T08:55:08.113Z,62.21
2023-03-12T08:58:10.152Z,61.81
2023-03-12T09:01:13.802Z,61.67
2023-03-12T09:04:17.133Z,61.51
2023-03-12T09:07:19.229Z,61.33
2023-03-12T09:10:21.341Z,60.78
2023-03-12T09:13:23.426Z,61.52
2023-03-12T09:16:25.505Z,61.15
2023-03-12T09:19:27.532Z,61.15
2023-03-12T09:22:30.651Z,61.71
2023-03-12T09:25:33.377Z,61.09
2023-03-12T09:28:35.458Z,60.78
2023-03-12T09:31:37.568Z,60.93
2023-03-12T09:34:39.663Z,60.59
2023-03-12T09:37:41.983Z,60.16
2023-03-12T09:40:47.745Z,58.50
2023-03-12T09:43:53.066Z,59.13
2023-03-12T09:47:01.310Z,58.08
2023-03-12T09:50:17.157Z,57.79
2023-03-12T09:53:28.491Z,56.89
2023-03-12T09:56:30.558Z,56.80
2023-03-12T09:59:37.147Z,56.59
2023-03-12T10:02:51.765Z,55.96
2023-03-12T10:06:29.850Z,55.65
2023-03-12T10:09:37.767Z,55.71
2023-03-12T10:13:04.554Z,55.28
2023-03-12T10:16:49.793Z,53.58
2023-03-12T10:20:16.580Z,53.02
2023-03-12T10:23:37.198Z,54.70
2023-03-12T10:26:44.206Z,54.08
2023-03-12T10:29:51.000Z,53.22
2023-03-12T10:32:59.356Z,53.39
2023-03-12T10:36:01.672Z,52.96
2023-03-12T10:39:04.646Z,54.07
2023-03-12T10:42:16.615Z,53.29
2023-03-12T10:46:04.539Z,53.16
2023-03-12T10:49:22.009Z,53.54
2023-03-12T10:52:24.136Z,52.22
2023-03-12T10:55:29.800Z,51.72
2023-03-12T10:58:43.968Z,50.25
2023-03-12T11:01:50.234Z,50.80
2023-03-12T11:04:55.509Z,50.07
2023-03-12T11:08:00.581Z,50.65
2023-03-12T11:11:05.479Z,51.80
2023-03-12T11:14:16.412Z,58.05
2023-03-12T11:17:27.829Z,72.64
2023-03-12T11:20:30.980Z,68.27
2023-03-12T11:23:33.754Z,67.67
2023-03-12T11:27:14.403Z,64.52
2023-03-12T11:30:40.831Z,61.60
2023-03-12T11:33:42.991Z,61.76
2023-03-12T11:36:47.980Z,61.95
2023-03-12T11:40:10.166Z,64.50
2023-03-12T11:44:09.166Z,75.68
2023-03-12T11:47:14.200Z,74.33
2023-03-12T11:50:45.888Z,80.24
2023-03-12T11:54:06.620Z,83.23
2023-03-12T11:57:15.549Z,88.27
2023-03-12T12:00:35.101Z,93.06
2023-03-12T12:03:49.114Z,97.60
2023-03-12T12:07:05.294Z,95.23
2023-03-12T12:10:30.599Z,91.06
2023-03-12T12:13:46.830Z,87.50
2023-03-12T12:17:01.127Z,84.54
2023-03-12T12:20:29.052Z,82.52
2023-03-12T12:24:17.699Z,79.63
2023-03-12T12:27:27.524Z,75.49
2023-03-12T13:13:20.972Z,69.44
2023-03-12T13:16:40.206Z,73.48
2023-03-12T13:19:44.953Z,71.37
2023-03-12T13:23:05.164Z,69.93
2023-03-12T13:26:11.995Z,69.29
2023-03-12T13:29:19.963Z,67.61
2023-03-12T13:32:34.637Z,64.67
2023-03-12T13:35:39.538Z,63.29
2023-03-12T13:38:53.783Z,62.06
2023-03-12T13:41:57.042Z,59.99
2023-03-12T13:45:22.233Z,59.45
2023-03-12T13:48:25.571Z,57.88
2023-03-12T13:51:28.310Z,60.54
2023-03-12T13:54:34.555Z,59.07
2023-03-12T13:57:50.518Z,64.46
2023-03-12T14:01:01.308Z,67.41
2023-03-12T14:04:12.642Z,68.81
2023-03-12T14:07:30.643Z,67.42
2023-03-12T14:10:41.896Z,65.75
2023-03-12T14:13:51.355Z,65.17
2023-03-12T14:17:01.575Z,62.58
2023-03-12T14:20:26.828Z,63.53
2023-03-12T14:23:35.122Z,62.42
2023-03-12T14:26:37.408Z,59.85
2023-03-12T14:29:43.966Z,60.36
2023-03-12T14:32:48.320Z,60.63
2023-03-12T14:35:56.646Z,60.57
2023-03-12T14:39:10.505Z,57.41
2023-03-12T14:42:31.989Z,59.45
2023-03-12T14:45:40.618Z,59.65
2023-03-12T14:48:43.017Z,58.16
2023-03-12T14:51:45.172Z,59.54
2023-03-12T14:54:56.429Z,61.59
2023-03-12T14:58:17.354Z,64.16
2023-03-12T15:01:30.128Z,64.10
2023-03-12T15:04:34.900Z,66.71
2023-03-12T15:07:39.747Z,67.00
2023-03-12T15:10:51.960Z,66.38
2023-03-12T15:13:56.000Z,64.87
2023-03-12T15:17:00.402Z,65.14
2023-03-12T15:20:10.701Z,66.55
2023-03-12T15:23:14.285Z,66.07
2023-03-12T15:26:29.082Z,65.84
2023-03-12T15:29:31.224Z,66.07
2023-03-12T15:32:33.571Z,65.26
2023-03-12T15:35:39.601Z,66.76
2023-03-12T15:39:15.619Z,64.70
2023-03-12T15:42:21.790Z,63.51
2023-03-12T15:45:46.020Z,62.71
2023-03-12T15:48:53.903Z,61.99
2023-03-12T15:52:02.257Z,61.78
2023-03-12T15:55:07.310Z,61.28
2023-03-12T15:58:41.004Z,60.62
2023-03-12T16:01:53.033Z,59.92
2023-03-12T16:04:55.296Z,60.40
2023-03-12T16:07:59.347Z,59.89
2023-03-12T16:11:02.080Z,60.41
2023-03-12T16:14:10.890Z,61.02
2023-03-12T16:17:17.944Z,61.63
2023-03-12T16:20:20.196Z,61.36
2023-03-12T16:23:23.206Z,61.49
2023-03-12T16:26:25.215Z,61.56
2023-03-12T16:29:35.940Z,61.38
2023-03-12T16:32:38.467Z,62.62
2023-03-12T16:35:40.746Z,62.12
2023-03-12T16:38:44.204Z,62.03
2023-03-12T16:41:47.179Z,61.28
2023-03-12T16:44:49.278Z,61.73
2023-03-12T16:47:58.032Z,60.39
2023-03-12T16:51:03.569Z,60.08
2023-03-12T16:54:11.417Z,60.20
2023-03-12T16:57:41.171Z,60.40
2023-03-12T17:00:43.984Z,60.53
2023-03-12T17:03:49.675Z,60.80
2023-03-12T17:06:51.910Z,60.79
2023-03-12T17:09:54.147Z,61.81
2023-03-12T17:12:56.835Z,61.67
2023-03-12T17:15:58.948Z,62.26
2023-03-12T17:19:01.118Z,62.61
2023-03-12T17:22:04.463Z,62.49
2023-03-12T17:25:07.828Z,62.73
2023-03-12T17:28:11.873Z,63.54
2023-03-12T17:31:16.929Z,61.65
2023-03-12T17:34:19.441Z,62.04
2023-03-12T17:37:23.725Z,62.00
2023-03-12T17:40:27.112Z,61.29
2023-03-12T17:43:29.649Z,60.55
2023-03-12T17:46:31.978Z,60.22
2023-03-12T17:49:34.200Z,60.72
2023-03-12T17:52:36.711Z,60.06
2023-03-12T17:55:38.697Z,60.09
2023-03-12T17:58:40.724Z,58.76
2023-03-12T18:01:42.966Z,59.74
2023-03-12T18:04:45.038Z,59.51
2023-03-12T18:07:48.519Z,58.19
2023-03-12T18:10:50.580Z,60.24
2023-03-12T18:13:53.439Z,59.39
2023-03-12T18:16:55.579Z,60.35
2023-03-12T18:19:57.662Z,65.13
2023-03-12T18:23:00.173Z,63.84
2023-03-12T18:26:04.733Z,65.45
2023-03-12T18:29:06.692Z,71.09
2023-03-12T18:32:09.463Z,77.44
2023-03-12T18:35:13.969Z,85.50
2023-03-12T18:38:16.187Z,94.78
2023-03-12T18:41:18.192Z,100.00
2023-03-12T18:44:20.290Z,100.00
2023-03-12T18:47:23.297Z,100.00
2023-03-12T18:50:25.644Z,100.00
2023-03-12T18:53:29.338Z,100.00
2023-03-12T18:56:31.434Z,100.00
2023-03-12T18:59:33.502Z,100.00
2023-03-12T19:02:35.609Z,100.00
2023-03-12T19:05:37.993Z,99.24
2023-03-12T19:08:40.535Z,97.56
2023-03-12T19:11:42.613Z,96.46
2023-03-12T19:14:44.672Z,96.55
2023-03-12T19:17:46.806Z,95.54
2023-03-12T19:20:48.980Z,95.40
2023-03-12T19:23:52.210Z,94.08
2023-03-12T19:26:54.351Z,94.58
2023-03-12T19:29:59.208Z,93.54
2023-03-12T19:33:01.332Z,92.08
2023-03-12T19:36:06.258Z,91.16
2023-03-12T19:39:15.198Z,90.31
2023-03-12T19:42:22.364Z,93.63
2023-03-12T19:45:24.620Z,91.35
2023-03-12T19:48:27.012Z,90.13
2023-03-12T19:51:29.471Z,88.77
2023-03-12T19:54:31.631Z,87.11
2023-03-12T19:57:34.403Z,86.48
2023-03-12T20:00:37.995Z,84.43
2023-03-12T20:03:45.040Z,83.51
2023-03-12T20:06:47.727Z,82.49
2023-03-12T20:09:50.222Z,82.02
2023-03-12T20:12:55.642Z,81.11
2023-03-12T20:15:57.863Z,80.88
2023-03-12T20:19:00.297Z,79.89
2023-03-12T20:22:02.489Z,78.85
2023-03-12T20:25:06.399Z,78.20
2023-03-12T20:28:10.942Z,77.76
2023-03-12T20:31:16.549Z,77.20
2023-03-12T20:34:18.732Z,75.91
2023-03-12T20:37:22.504Z,75.24
2023-03-12T20:40:24.625Z,74.22
2023-03-12T20:43:27.053Z,73.20
2023-03-12T20:46:29.237Z,72.84
2023-03-12T20:49:31.407Z,72.48
2023-03-12T20:52:33.958Z,72.04
2023-03-12T20:55:38.996Z,71.10
2023-03-12T20:58:46.125Z,71.89
2023-03-12T21:01:48.126Z,71.76
2023-03-12T21:04:53.015Z,70.60
2023-03-12T21:07:58.371Z,70.26
2023-03-12T21:11:00.627Z,69.86
2023-03-12T21:14:02.634Z,70.62
2023-03-12T21:17:04.935Z,69.70
2023-03-12T21:20:17.183Z,69.94
2023-03-12T21:23:19.982Z,68.70
2023-03-12T21:26:23.045Z,69.29
2023-03-12T21:29:25.262Z,68.70
2023-03-12T21:32:27.798Z,68.08
2023-03-12T21:35:30.062Z,68.35
2023-03-12T21:38:32.292Z,67.66
2023-03-12T21:41:34.291Z,67.31
2023-03-12T21:44:37.252Z,67.82
2023-03-12T21:47:41.720Z,66.57
2023-03-12T21:50:43.816Z,66.70
2023-03-12T21:53:45.961Z,66.53
2023-03-12T21:56:47.945Z,65.98
2023-03-12T21:59:50.012Z,65.80
2023-03-12T22:02:53.023Z,64.91
2023-03-12T22:05:55.343Z,64.71
2023-03-12T22:08:57.645Z,64.77
2023-03-12T22:12:01.675Z,64.79
2023-03-12T22:15:04.582Z,63.46
2023-03-12T22:18:06.715Z,63.37
2023-03-12T22:21:13.636Z,63.46
2023-03-12T22:24:15.748Z,63.10
2023-03-12T22:27:17.870Z,63.82
2023-03-12T22:30:20.148Z,63.27
2023-03-12T22:33:22.379Z,62.76
2023-03-12T22:36:24.624Z,62.25
2023-03-12T22:39:26.732Z,62.62
2023-03-12T22:42:28.801Z,62.45
2023-03-12T22:45:31.060Z,62.31
2023-03-12T22:48:33.333Z,61.47
2023-03-12T22:51:35.387Z,61.92
2023-03-12T22:54:37.466Z,61.79
2023-03-12T22:57:39.507Z,71.34
2023-03-12T23:00:41.636Z,76.47
2023-03-12T23:03:45.385Z,77.50
2023-03-12T23:06:47.371Z,78.92
2023-03-12T23:09:49.879Z,78.89
2023-03-12T23:12:51.803Z,78.28
2023-03-12T23:15:53.923Z,78.44
2023-03-12T23:18:56.708Z,78.77
2023-03-12T23:21:58.853Z,78.13
2023-03-12T23:25:01.006Z,78.24
2023-03-12T23:28:03.623Z,78.00
2023-03-12T23:31:07.700Z,78.58
2023-03-12T23:34:10.089Z,77.38
2023-03-12T23:37:12.301Z,77.91
2023-03-12T23:40:16.965Z,76.80
2023-03-12T23:43:19.354Z,75.80
2023-03-12T23:46:21.624Z,74.54
2023-03-12T23:49:23.710Z,74.16
2023-03-12T23:52:28.641Z,73.65
2023-03-12T23:55:30.928Z,74.06
2023-03-12T23:58:33.248Z,74.38
